Etusivu
METAR-TAF:

METAR-TAF

Lentoasemat :

Formosa, Argentiina

Leveyspiiri: 26-12S, Pituuspiiri: 058-14W, korkeus merenpinnasta: 59 m

Tämänhetkinen sää

Tämä raportti tehtiin 1 tunti ja 11 minuuttia sitten, kello 16.00 UTC
Tuuli 15 kn etelästä/lounaasta
Lämpötila 29°C
Kosteus 31%
Ilmanpaine 1013 hPa
Näkyvyys 10 km tai enemmän
ei pilviä alle 1500 m:ssä eikä cumulonimbus-pilviä

METAR: SARF 051600Z 20015KT CAVOK 29/10 Q1013

Aika: 14:11 (17:11 UTC)

Sääennuste

Tämä raportti tehtiin 6 tuntia ja 11 minuuttia sitten, kello 11.00 UTC
Ennuste voimassa 05. päivästä klo 12 UTC - 06. päivään klo 12 UTC
Tuuli 15 kn etelästä
Näkyvyys 10 km tai enemmän
ei pilviä alle 1500 m:ssä eikä cumulonimbus-pilviä
Tulossa
06. päivästä klo 00 UTC - 06. päivään klo 01 UTC
Tuuli 5 kn etelästä

TAF: SARF 051100Z 0512/0612 18015KT CAVOK TX30/0518Z TN16/0609Z BECMG 0600/0601 18005KT

Säähavainnot ja -ennusteet yli 4000 lentoasemalta (METAR- ja TAF-raportit).

Käytössä olevat sääasemat on merkitty karttaan keltaisilla ja punaisilla pisteillä.

Aseta hiiri pisteen päälle nähdäksesi sääaseman nimen.

Klikkaa sitten nähdäksesi säähavainnot ja -ennusteet.

Kartan vaihtaminen: klikkaa mustalla rastilla varustettuja vihreitä pisteitä, niin voit zoomata sisään; viivalla varustettua vihreää pistettä, niin voit zoomata ulos tai vihreitä nuolia, niin pääset viereisille kartoille.


METAR-TAF: